createdAt,value
2023-05-12T00:00:51.271Z,17.92
2023-05-12T00:05:53.815Z,18.13
2023-05-12T00:10:55.719Z,18.00
2023-05-12T00:15:59.238Z,19.70
2023-05-12T00:21:01.230Z,19.88
2023-05-12T00:26:03.018Z,20.38
2023-05-12T00:31:05.249Z,19.50
2023-05-12T00:36:07.826Z,18.58
2023-05-12T00:41:09.701Z,20.55
2023-05-12T00:46:11.647Z,18.33
2023-05-12T00:51:15.414Z,18.00
2023-05-12T00:56:21.902Z,18.25
2023-05-12T01:01:23.972Z,19.75
2023-05-12T01:06:25.766Z,20.00
2023-05-12T01:11:27.496Z,18.95
2023-05-12T01:16:36.745Z,20.02
2023-05-12T01:21:39.290Z,19.15
2023-05-12T01:26:41.152Z,18.58
2023-05-12T01:31:43.455Z,18.92
2023-05-12T01:36:45.304Z,19.13
2023-05-12T01:41:47.462Z,18.65
2023-05-12T01:46:49.684Z,19.55
2023-05-12T01:51:51.531Z,20.80
2023-05-12T01:56:53.294Z,19.55
2023-05-12T02:01:55.184Z,18.23
2023-05-12T02:06:57.028Z,18.83
2023-05-12T02:11:58.777Z,17.83
2023-05-12T02:17:00.592Z,17.83
2023-05-12T02:22:02.412Z,18.55
2023-05-12T02:27:04.378Z,19.05
2023-05-12T02:32:06.377Z,19.48
2023-05-12T02:37:08.176Z,18.13
2023-05-12T02:42:10.067Z,19.90
2023-05-12T02:47:11.841Z,18.38
2023-05-12T02:52:13.799Z,18.23
2023-05-12T02:57:15.672Z,18.13
2023-05-12T03:02:17.469Z,17.83
2023-05-12T03:07:19.551Z,13.80
2023-05-12T03:12:21.568Z,10.20
2023-05-12T03:17:23.448Z,9.80
2023-05-12T03:22:25.584Z,8.63
2023-05-12T03:27:27.490Z,8.68
2023-05-12T03:32:29.327Z,7.40
2023-05-12T03:37:31.099Z,7.75
2023-05-12T03:42:32.887Z,7.97
2023-05-12T03:47:36.030Z,8.68
2023-05-12T03:52:38.579Z,8.40
2023-05-12T03:57:40.625Z,8.15
2023-05-12T04:02:42.509Z,8.98
2023-05-12T04:07:44.418Z,8.75
2023-05-12T04:12:46.278Z,8.80
2023-05-12T04:17:48.862Z,9.02
2023-05-12T04:22:51.634Z,9.15
2023-05-12T04:27:53.460Z,8.52
2023-05-12T04:32:56.704Z,8.63
2023-05-12T04:37:58.609Z,8.02
2023-05-12T04:43:00.451Z,7.85
2023-05-12T04:48:02.301Z,8.07
2023-05-12T04:53:04.100Z,7.88
2023-05-12T04:58:05.973Z,8.20
2023-05-12T05:03:08.048Z,8.07
2023-05-12T05:08:10.009Z,6.55
2023-05-12T05:13:11.925Z,6.50
2023-05-12T05:18:13.737Z,7.43
2023-05-12T05:23:15.829Z,6.18
2023-05-12T05:28:17.620Z,5.63
2023-05-12T05:33:19.391Z,4.85
2023-05-12T05:38:21.469Z,5.10
2023-05-12T05:43:23.446Z,4.35
2023-05-12T05:48:25.712Z,3.70
2023-05-12T05:53:27.810Z,3.58
2023-05-12T05:58:29.643Z,4.20
2023-05-12T06:03:32.001Z,3.50
2023-05-12T06:08:34.156Z,3.22
2023-05-12T06:13:36.592Z,3.15
2023-05-12T06:18:38.694Z,3.03
2023-05-12T06:23:40.598Z,3.17
2023-05-12T06:28:42.858Z,3.42
2023-05-12T06:33:44.634Z,3.00
2023-05-12T06:38:46.514Z,2.78
2023-05-12T06:43:48.568Z,3.25
2023-05-12T06:48:50.497Z,3.55
2023-05-12T06:53:52.493Z,3.30
2023-05-12T06:58:56.762Z,3.85
2023-05-12T07:03:59.588Z,3.80
2023-05-12T07:09:01.701Z,4.22
2023-05-12T07:14:03.524Z,4.22
2023-05-12T07:19:06.606Z,3.80
2023-05-12T07:24:08.555Z,4.13
2023-05-12T07:29:13.654Z,3.72
2023-05-12T07:34:16.112Z,3.22
2023-05-12T07:39:23.498Z,3.22
2023-05-12T07:44:26.161Z,3.30
2023-05-12T07:49:27.973Z,3.58
2023-05-12T07:54:29.728Z,3.15
2023-05-12T07:59:31.520Z,3.05
2023-05-12T08:04:33.436Z,2.90
2023-05-12T08:09:35.362Z,3.30
2023-05-12T08:14:37.389Z,3.13
2023-05-12T08:19:39.400Z,3.50
2023-05-12T08:24:41.342Z,3.28
2023-05-12T08:29:43.201Z,3.00
2023-05-12T08:34:45.321Z,2.45
2023-05-12T08:39:47.257Z,2.47
2023-05-12T08:44:49.754Z,2.22
2023-05-12T08:50:00.408Z,2.40
2023-05-12T08:55:03.894Z,2.45
2023-05-12T09:00:08.874Z,2.22
2023-05-12T09:05:10.820Z,2.63
2023-05-12T09:10:29.867Z,2.42
2023-05-12T09:15:42.893Z,2.50
2023-05-12T09:20:44.713Z,2.05
2023-05-12T09:25:47.141Z,3.30
2023-05-12T09:30:48.972Z,3.40
2023-05-12T09:35:50.767Z,2.85
2023-05-12T09:40:52.724Z,2.95
2023-05-12T09:45:55.651Z,3.10
2023-05-12T09:50:57.768Z,3.13
2023-05-12T09:55:59.691Z,3.42
2023-05-12T10:01:20.914Z,3.13
2023-05-12T10:06:42.149Z,3.53
2023-05-12T10:11:45.214Z,4.00
2023-05-12T10:16:47.750Z,4.40
2023-05-12T10:21:50.624Z,5.03
2023-05-12T10:26:54.836Z,5.28
2023-05-12T10:31:57.840Z,5.50
2023-05-12T10:36:59.874Z,5.82
2023-05-12T10:42:06.276Z,5.68
2023-05-12T10:47:15.159Z,6.75
2023-05-12T10:52:20.185Z,6.78
2023-05-12T10:57:22.422Z,6.72
2023-05-12T11:02:27.570Z,5.35
2023-05-12T11:07:33.115Z,6.18
2023-05-12T11:12:36.312Z,6.15
2023-05-12T11:17:42.480Z,6.78
2023-05-12T11:22:44.331Z,6.50
2023-05-12T11:27:53.168Z,7.45
2023-05-12T11:33:02.330Z,6.80
2023-05-12T11:38:16.384Z,8.00
2023-05-12T11:43:21.280Z,7.80
2023-05-12T11:48:33.917Z,7.80
2023-05-12T11:53:40.754Z,7.53
2023-05-12T11:58:52.738Z,7.88
2023-05-12T12:03:55.964Z,7.43
2023-05-12T12:09:02.446Z,7.00
2023-05-12T12:14:05.042Z,5.82
2023-05-12T12:19:07.600Z,4.70
2023-05-12T12:24:09.437Z,4.60
2023-05-12T12:29:11.235Z,3.97
2023-05-12T12:34:13.010Z,3.22
2023-05-12T12:39:15.550Z,3.40
2023-05-12T12:44:18.114Z,3.10
2023-05-12T12:49:21.838Z,2.85
2023-05-12T12:54:27.031Z,2.40
2023-05-12T12:59:29.393Z,2.40
2023-05-12T13:04:31.353Z,2.42
2023-05-12T13:09:33.937Z,2.63
2023-05-12T13:14:35.822Z,3.15
2023-05-12T13:19:38.285Z,2.40
2023-05-12T13:24:40.483Z,1.92
2023-05-12T13:29:42.395Z,2.03
2023-05-12T13:34:45.365Z,1.60
2023-05-12T13:39:47.162Z,1.65
2023-05-12T13:44:49.339Z,1.80
2023-05-12T13:49:51.213Z,1.80
2023-05-12T13:54:53.089Z,1.73
2023-05-12T13:59:57.793Z,1.50
2023-05-12T14:04:59.792Z,1.80
2023-05-12T14:10:01.829Z,1.70
2023-05-12T14:15:29.637Z,1.30
2023-05-12T14:20:25.964Z,1.65
2023-05-12T14:25:27.781Z,1.50
2023-05-12T14:30:29.984Z,1.40
2023-05-12T14:35:32.097Z,1.02
2023-05-12T14:40:33.936Z,1.40
2023-05-12T14:45:35.920Z,1.27
2023-05-12T14:50:38.080Z,1.42
2023-05-12T14:55:40.181Z,1.50
2023-05-12T15:00:42.024Z,1.67
2023-05-12T15:10:48.582Z,1.80
2023-05-12T15:15:52.937Z,2.08
2023-05-12T15:20:57.276Z,1.88
2023-05-12T15:26:03.269Z,2.15
2023-05-12T15:31:08.873Z,2.38
2023-05-12T15:36:11.590Z,1.95
2023-05-12T15:41:13.368Z,2.10
2023-05-12T15:46:15.175Z,2.65
2023-05-12T15:51:17.012Z,3.00
2023-05-12T15:56:18.770Z,2.83
2023-05-12T16:01:20.600Z,2.83
2023-05-12T16:06:22.713Z,2.90
2023-05-12T16:11:24.630Z,3.17
2023-05-12T16:16:26.543Z,3.00
2023-05-12T16:21:28.437Z,2.60
2023-05-12T16:26:30.394Z,3.35
2023-05-12T16:31:32.169Z,3.95
2023-05-12T16:36:34.071Z,3.30
2023-05-12T16:41:36.027Z,3.30
2023-05-12T16:46:40.039Z,3.60
2023-05-12T16:51:43.427Z,3.20
2023-05-12T16:56:45.224Z,2.95
2023-05-12T17:01:47.275Z,3.28
2023-05-12T17:06:50.145Z,3.72
2023-05-12T17:11:51.932Z,4.30
2023-05-12T17:16:53.706Z,3.95
2023-05-12T17:21:55.622Z,3.63
2023-05-12T17:26:57.667Z,4.25
2023-05-12T17:32:00.068Z,3.95
2023-05-12T17:37:04.037Z,4.35
2023-05-12T17:42:06.373Z,3.95
2023-05-12T17:47:08.330Z,4.95
2023-05-12T17:52:10.226Z,4.47
2023-05-12T17:57:12.211Z,4.03
2023-05-12T18:02:14.236Z,4.95
2023-05-12T18:07:16.031Z,4.85
2023-05-12T18:12:18.491Z,5.05
2023-05-12T18:17:20.849Z,4.65
2023-05-12T18:22:22.880Z,4.68
2023-05-12T18:27:24.671Z,5.28
2023-05-12T18:32:26.570Z,5.40
2023-05-12T18:37:28.367Z,5.05
2023-05-12T18:42:30.142Z,5.47
2023-05-12T18:47:32.041Z,5.25
2023-05-12T18:52:33.852Z,5.60
2023-05-12T18:57:35.646Z,5.03
2023-05-12T19:02:37.704Z,5.95
2023-05-12T19:07:39.646Z,5.80
2023-05-12T19:12:41.585Z,6.53
2023-05-12T19:17:43.579Z,6.10
2023-05-12T19:22:46.465Z,7.30
2023-05-12T19:27:48.258Z,6.75
2023-05-12T19:32:50.185Z,6.18
2023-05-12T19:37:52.089Z,6.55
2023-05-12T19:42:55.161Z,6.60
2023-05-12T19:47:57.261Z,6.53
2023-05-12T19:52:59.172Z,7.72
2023-05-12T19:58:01.980Z,7.75
2023-05-12T20:03:06.750Z,7.50
2023-05-12T20:08:08.857Z,7.63
2023-05-12T20:13:11.734Z,7.13
2023-05-12T20:18:21.458Z,6.55
2023-05-12T20:23:23.370Z,5.88
2023-05-12T20:28:25.276Z,6.80
2023-05-12T20:33:27.176Z,6.18
2023-05-12T20:38:28.976Z,6.00
2023-05-12T20:43:31.042Z,4.85
2023-05-12T20:48:33.040Z,5.20
2023-05-12T20:53:36.552Z,5.60
2023-05-12T20:58:38.334Z,5.47
2023-05-12T21:03:40.216Z,5.25
2023-05-12T21:08:42.059Z,4.80
2023-05-12T21:13:46.023Z,4.88
2023-05-12T21:18:47.871Z,5.75
2023-05-12T21:23:49.693Z,5.90
2023-05-12T21:28:51.631Z,5.60
2023-05-12T21:33:53.654Z,6.13
2023-05-12T21:38:55.522Z,6.28
2023-05-12T21:43:57.340Z,5.45
2023-05-12T21:48:59.220Z,5.93
2023-05-12T21:54:01.217Z,7.00
2023-05-12T21:59:03.124Z,6.35
2023-05-12T22:04:05.578Z,6.68
2023-05-12T22:09:07.793Z,6.40
2023-05-12T22:14:09.773Z,6.65
2023-05-12T22:19:12.008Z,6.18
2023-05-12T22:24:13.853Z,7.50
2023-05-12T22:29:15.632Z,6.03
2023-05-12T22:34:17.450Z,6.35
2023-05-12T22:39:19.794Z,6.90
2023-05-12T22:44:21.596Z,7.30
2023-05-12T22:49:23.662Z,7.20
2023-05-12T22:54:25.529Z,7.63
2023-05-12T22:59:27.310Z,7.50
2023-05-12T23:04:29.228Z,6.32
2023-05-12T23:09:30.994Z,6.88
2023-05-12T23:14:32.929Z,6.47
2023-05-12T23:19:34.803Z,7.22
2023-05-12T23:24:36.659Z,7.03
2023-05-12T23:29:38.383Z,7.63
2023-05-12T23:34:42.920Z,7.68
2023-05-12T23:39:45.005Z,7.78
2023-05-12T23:44:46.795Z,7.45
2023-05-12T23:49:48.572Z,7.75
2023-05-12T23:54:51.719Z,7.35
2023-05-12T23:59:53.473Z,8.55
